createdAt,value
2022-12-19T00:00:35.485Z,70.79
2022-12-19T00:03:03.337Z,70.98
2022-12-19T00:05:31.115Z,71.21
2022-12-19T00:07:58.996Z,71.16
2022-12-19T00:10:30.224Z,71.00
2022-12-19T00:12:57.969Z,70.80
2022-12-19T00:15:25.717Z,70.98
2022-12-19T00:17:54.801Z,70.84
2022-12-19T00:20:22.550Z,70.93
2022-12-19T00:22:51.090Z,71.41
2022-12-19T00:25:26.129Z,70.74
2022-12-19T00:27:54.268Z,70.68
2022-12-19T00:30:22.036Z,71.15
2022-12-19T00:32:50.515Z,71.29
2022-12-19T00:35:19.643Z,71.65
2022-12-19T00:37:49.745Z,72.35
2022-12-19T00:40:18.157Z,72.53
2022-12-19T00:42:51.647Z,72.73
2022-12-19T00:45:21.255Z,72.71
2022-12-19T00:47:49.026Z,72.58
2022-12-19T00:50:16.939Z,74.11
2022-12-19T00:52:46.879Z,73.53
2022-12-19T00:55:18.834Z,73.11
2022-12-19T00:57:47.131Z,73.31
2022-12-19T01:00:16.538Z,73.47
2022-12-19T01:02:45.147Z,73.63
2022-12-19T01:05:13.011Z,74.11
2022-12-19T01:07:42.164Z,74.67
2022-12-19T01:10:11.583Z,74.76
2022-12-19T01:12:47.431Z,74.76
2022-12-19T01:15:17.024Z,74.73
2022-12-19T01:17:45.199Z,74.61
2022-12-19T01:20:15.107Z,74.75
2022-12-19T01:22:43.016Z,74.69
2022-12-19T01:25:12.412Z,74.80
2022-12-19T01:27:40.276Z,75.43
2022-12-19T01:30:09.220Z,75.45
2022-12-19T01:32:37.608Z,75.38
2022-12-19T01:35:06.086Z,75.06
2022-12-19T01:37:37.642Z,75.06
2022-12-19T01:40:06.328Z,74.92
2022-12-19T01:42:37.743Z,74.50
2022-12-19T01:45:21.103Z,74.70
2022-12-19T01:47:53.467Z,74.53
2022-12-19T01:50:25.984Z,74.30
2022-12-19T01:52:54.461Z,73.69
2022-12-19T01:55:22.684Z,73.40
2022-12-19T01:57:53.037Z,73.49
2022-12-19T02:00:20.918Z,73.27
2022-12-19T02:02:54.107Z,73.05
2022-12-19T02:05:22.316Z,72.75
2022-12-19T02:07:50.648Z,72.29
2022-12-19T02:10:18.464Z,72.24
2022-12-19T02:12:47.075Z,71.96
2022-12-19T02:15:16.979Z,72.23
2022-12-19T02:17:58.672Z,73.10
2022-12-19T02:21:06.803Z,73.59
2022-12-19T02:23:57.861Z,73.23
2022-12-19T02:26:47.654Z,73.06
2022-12-19T02:29:42.824Z,73.72
2022-12-19T02:32:19.567Z,73.60
2022-12-19T02:34:52.470Z,73.75
2022-12-19T02:37:22.331Z,73.97
2022-12-19T02:39:53.726Z,74.33
2022-12-19T02:42:26.913Z,74.10
2022-12-19T02:45:02.467Z,73.96
2022-12-19T02:47:33.384Z,74.71
2022-12-19T02:50:02.857Z,75.09
2022-12-19T02:52:50.027Z,74.49
2022-12-19T02:55:23.881Z,74.68
2022-12-19T02:58:10.170Z,74.57
2022-12-19T03:00:44.984Z,74.22
2022-12-19T03:03:21.331Z,73.35
2022-12-19T03:05:56.851Z,73.34
2022-12-19T03:08:26.462Z,72.66
2022-12-19T03:10:59.452Z,72.74
2022-12-19T03:13:30.282Z,72.48
2022-12-19T03:15:59.556Z,72.97
2022-12-19T03:18:29.019Z,73.19
2022-12-19T03:21:04.079Z,73.27
2022-12-19T03:23:32.173Z,73.55
2022-12-19T03:26:02.785Z,73.13
2022-12-19T03:28:36.266Z,73.11
2022-12-19T03:31:05.214Z,73.32
2022-12-19T03:33:35.523Z,73.08
2022-12-19T03:36:06.583Z,72.85
2022-12-19T03:38:36.241Z,73.29
2022-12-19T03:41:05.018Z,73.09
2022-12-19T03:43:32.473Z,72.97
2022-12-19T03:46:03.859Z,72.89
2022-12-19T03:48:36.214Z,72.64
2022-12-19T03:51:15.030Z,72.76
2022-12-19T03:53:49.283Z,72.54
2022-12-19T03:56:22.169Z,72.76
2022-12-19T03:58:53.732Z,72.37
2022-12-19T04:01:22.230Z,72.53
2022-12-19T04:03:51.683Z,72.59
2022-12-19T04:06:19.791Z,73.06
2022-12-19T04:08:48.008Z,72.90
2022-12-19T04:11:18.955Z,72.91
2022-12-19T04:13:50.596Z,73.76
2022-12-19T04:16:24.620Z,73.85
2022-12-19T04:18:57.630Z,73.30
2022-12-19T04:21:29.244Z,73.50
2022-12-19T04:24:00.405Z,74.01
2022-12-19T04:26:28.885Z,75.18
2022-12-19T04:29:00.873Z,76.13
2022-12-19T04:31:28.866Z,77.19
2022-12-19T04:33:58.041Z,77.54
2022-12-19T04:36:26.441Z,77.80
2022-12-19T04:38:54.177Z,77.93
2022-12-19T04:41:21.889Z,77.57
2022-12-19T04:43:49.753Z,77.78
2022-12-19T04:46:17.534Z,77.46
2022-12-19T04:48:45.265Z,76.74
2022-12-19T04:51:14.585Z,76.83
2022-12-19T04:53:42.252Z,77.56
2022-12-19T04:56:11.421Z,77.81
2022-12-19T04:58:39.208Z,78.00
2022-12-19T05:01:08.504Z,77.96
2022-12-19T05:03:37.138Z,77.61
2022-12-19T05:06:07.086Z,77.07
2022-12-19T05:08:36.972Z,78.25
2022-12-19T05:11:05.605Z,79.04
2022-12-19T05:13:33.540Z,79.66
2022-12-19T05:16:02.951Z,80.11
2022-12-19T05:18:31.382Z,81.01
2022-12-19T05:20:59.449Z,81.42
2022-12-19T05:23:27.217Z,81.47
2022-12-19T05:25:58.572Z,81.64
2022-12-19T05:28:26.453Z,81.11
2022-12-19T05:30:54.242Z,80.63
2022-12-19T05:33:22.044Z,80.61
2022-12-19T05:35:50.377Z,80.15
2022-12-19T05:38:18.079Z,79.94
2022-12-19T05:40:45.866Z,79.13
2022-12-19T05:43:14.960Z,79.14
2022-12-19T05:45:42.753Z,78.50
2022-12-19T05:48:10.453Z,78.49
2022-12-19T05:50:38.262Z,78.75
2022-12-19T05:53:10.414Z,79.26
2022-12-19T05:55:38.138Z,79.73
2022-12-19T05:58:05.907Z,79.11
2022-12-19T06:00:35.105Z,78.53
2022-12-19T06:03:03.047Z,78.56
2022-12-19T06:05:31.277Z,78.60
2022-12-19T06:07:58.996Z,79.35
2022-12-19T06:10:27.486Z,79.37
2022-12-19T06:12:55.263Z,79.84
2022-12-19T06:15:23.093Z,79.65
2022-12-19T06:17:55.433Z,79.99
2022-12-19T06:20:23.569Z,80.06
2022-12-19T06:22:51.406Z,80.25
2022-12-19T06:25:19.171Z,80.69
2022-12-19T06:27:46.879Z,81.09
2022-12-19T06:30:15.392Z,81.83
2022-12-19T06:32:43.127Z,81.91
2022-12-19T06:35:12.432Z,82.67
2022-12-19T06:37:40.143Z,82.44
2022-12-19T06:40:29.730Z,81.91
2022-12-19T06:42:56.481Z,81.65
2022-12-19T06:45:24.282Z,82.92
2022-12-19T06:47:52.004Z,83.68
2022-12-19T06:50:21.092Z,84.21
2022-12-19T06:52:49.001Z,84.52
2022-12-19T06:55:16.814Z,84.96
2022-12-19T06:57:46.403Z,85.56
2022-12-19T07:00:15.055Z,85.44
2022-12-19T07:02:44.847Z,85.71
2022-12-19T07:05:13.758Z,84.61
2022-12-19T07:07:42.888Z,84.81
2022-12-19T07:10:11.320Z,84.45
2022-12-19T07:12:39.149Z,84.86
2022-12-19T07:15:07.935Z,84.38
2022-12-19T07:17:38.956Z,83.37
2022-12-19T07:20:07.737Z,82.77
2022-12-19T07:22:36.496Z,82.62
2022-12-19T07:25:06.984Z,82.84
2022-12-19T07:27:36.213Z,82.19
2022-12-19T07:30:05.673Z,82.26
2022-12-19T07:32:33.407Z,81.53
2022-12-19T07:35:01.173Z,81.80
2022-12-19T07:37:29.041Z,82.42
2022-12-19T07:39:56.805Z,82.17
2022-12-19T07:42:30.764Z,81.63
2022-12-19T07:45:00.483Z,81.88
2022-12-19T07:47:28.519Z,81.94
2022-12-19T07:49:56.275Z,82.15
2022-12-19T07:52:24.009Z,82.44
2022-12-19T07:54:51.900Z,81.96
2022-12-19T07:57:19.697Z,82.18
2022-12-19T07:59:48.759Z,82.08
2022-12-19T08:02:16.609Z,81.88
2022-12-19T08:04:44.380Z,81.04
2022-12-19T08:07:12.760Z,81.14
2022-12-19T08:09:40.550Z,80.80
2022-12-19T08:12:08.550Z,80.45
2022-12-19T08:14:36.330Z,79.83
2022-12-19T08:17:21.854Z,79.80
2022-12-19T08:19:49.937Z,80.28
2022-12-19T08:22:17.707Z,80.77
2022-12-19T08:24:45.479Z,80.09
2022-12-19T08:27:13.204Z,79.34
2022-12-19T08:29:40.947Z,79.24
2022-12-19T08:32:11.582Z,78.48
2022-12-19T08:34:41.538Z,77.87
2022-12-19T08:37:09.476Z,78.48
2022-12-19T08:39:37.186Z,78.64
2022-12-19T08:42:05.040Z,78.30
2022-12-19T08:44:32.858Z,77.74
2022-12-19T08:47:00.620Z,77.52
2022-12-19T08:49:29.733Z,77.32
2022-12-19T08:51:57.555Z,76.92
2022-12-19T08:54:25.281Z,76.94
2022-12-19T08:56:53.001Z,77.16
2022-12-19T08:59:30.563Z,77.35
2022-12-19T09:02:00.333Z,77.30
2022-12-19T09:05:57.791Z,77.52
2022-12-19T09:07:18.059Z,77.20
2022-12-19T09:09:46.522Z,76.46
2022-12-19T09:12:15.040Z,76.70
2022-12-19T09:14:44.062Z,77.16
2022-12-19T09:17:11.920Z,77.14
2022-12-19T09:19:41.561Z,76.93
2022-12-19T09:22:15.966Z,77.30
2022-12-19T09:24:43.736Z,77.32
2022-12-19T09:27:11.479Z,77.06
2022-12-19T09:29:39.550Z,76.17
2022-12-19T09:32:07.372Z,76.27
2022-12-19T09:34:38.655Z,76.05
2022-12-19T09:37:11.653Z,75.92
2022-12-19T09:39:46.264Z,76.52
2022-12-19T09:42:41.409Z,76.50
2022-12-19T09:45:31.757Z,76.71
2022-12-19T09:48:01.768Z,76.03
2022-12-19T09:50:40.599Z,75.75
2022-12-19T09:53:17.851Z,76.19
2022-12-19T09:55:46.477Z,75.99
2022-12-19T09:58:20.687Z,76.00
2022-12-19T10:00:56.049Z,75.54
2022-12-19T10:03:30.557Z,74.90
2022-12-19T10:07:11.921Z,74.42
2022-12-19T10:09:52.011Z,73.94
2022-12-19T10:12:43.073Z,73.96
2022-12-19T10:14:58.433Z,74.70
2022-12-19T10:17:31.601Z,75.05
2022-12-19T10:20:16.559Z,74.64
2022-12-19T10:22:54.843Z,73.77
2022-12-19T10:25:30.303Z,74.08
2022-12-19T10:28:03.411Z,73.72
2022-12-19T10:30:34.462Z,73.37
2022-12-19T10:33:18.333Z,73.50
2022-12-19T10:35:54.927Z,73.29
2022-12-19T10:38:27.831Z,73.15
2022-12-19T10:41:11.580Z,73.05
2022-12-19T10:43:48.329Z,72.69
2022-12-19T10:46:19.809Z,72.72
2022-12-19T10:48:48.904Z,73.42
2022-12-19T10:51:23.515Z,73.11
2022-12-19T10:53:55.106Z,72.60
2022-12-19T10:56:30.326Z,72.55
2022-12-19T10:59:03.114Z,72.41
2022-12-19T11:01:34.375Z,72.67
2022-12-19T11:04:27.688Z,72.68
2022-12-19T11:07:07.597Z,72.52
2022-12-19T11:09:38.350Z,72.62
2022-12-19T11:15:22.516Z,72.21
2022-12-19T11:19:21.571Z,71.76
2022-12-19T11:26:22.600Z,71.19
2022-12-19T11:29:32.462Z,70.74
2022-12-19T11:29:44.289Z,70.99
2022-12-19T11:30:37.765Z,70.56
2022-12-19T11:32:50.441Z,70.72
2022-12-19T11:35:24.931Z,70.64
2022-12-19T11:37:56.152Z,70.33
2022-12-19T11:40:33.543Z,69.75
2022-12-19T11:43:42.518Z,69.72
2022-12-19T11:46:01.444Z,69.72
2022-12-19T11:48:37.170Z,69.41
2022-12-19T11:51:08.851Z,69.42
2022-12-19T11:53:45.294Z,69.38
2022-12-19T11:56:16.132Z,69.71
2022-12-19T11:58:49.744Z,69.08
2022-12-19T12:01:24.148Z,68.16
2022-12-19T12:04:06.179Z,68.39
2022-12-19T12:06:36.012Z,68.32
2022-12-19T12:12:10.317Z,68.05
2022-12-19T12:19:48.619Z,67.81
2022-12-19T12:27:50.083Z,67.51
2022-12-19T12:31:07.036Z,66.77
2022-12-19T12:31:09.282Z,67.28
2022-12-19T12:31:22.092Z,66.04
2022-12-19T12:31:46.188Z,66.35
2022-12-19T12:32:04.978Z,65.81
2022-12-19T12:35:45.387Z,66.58
2022-12-19T12:38:50.213Z,67.18
2022-12-19T12:41:47.000Z,66.87
2022-12-19T12:44:15.155Z,66.49
2022-12-19T12:46:48.044Z,66.67
2022-12-19T12:49:30.290Z,66.48
2022-12-19T12:52:00.577Z,66.47
2022-12-19T12:54:33.436Z,66.25
2022-12-19T12:57:02.277Z,66.18
2022-12-19T12:59:32.867Z,65.56
2022-12-19T13:02:02.263Z,65.52
2022-12-19T13:04:35.299Z,65.40
2022-12-19T13:07:15.085Z,65.30
2022-12-19T13:09:43.067Z,64.74
2022-12-19T13:12:39.533Z,64.95
2022-12-19T13:15:37.394Z,64.35
2022-12-19T13:18:33.279Z,63.69
2022-12-19T13:21:03.475Z,63.19
2022-12-19T13:23:56.324Z,62.63
2022-12-19T13:26:56.504Z,62.27
2022-12-19T13:29:30.637Z,61.65
2022-12-19T13:32:16.154Z,61.36
2022-12-19T13:34:59.688Z,61.39
2022-12-19T13:39:51.734Z,60.89
2022-12-19T13:40:34.173Z,60.35
2022-12-19T13:43:31.272Z,61.07
2022-12-19T13:46:00.934Z,60.85
2022-12-19T13:48:32.482Z,60.99
2022-12-19T13:51:01.726Z,61.05
2022-12-19T13:53:30.941Z,61.76
2022-12-19T13:56:02.924Z,61.79
2022-12-19T13:58:32.300Z,61.95
2022-12-19T14:01:04.047Z,61.73
2022-12-19T14:03:36.157Z,61.77
2022-12-19T14:06:18.769Z,61.10
2022-12-19T14:08:48.330Z,61.44
2022-12-19T14:13:40.416Z,61.68
2022-12-19T14:14:46.929Z,61.14
2022-12-19T14:17:16.155Z,60.90
2022-12-19T14:19:46.648Z,60.73
2022-12-19T14:22:22.736Z,61.01
2022-12-19T14:25:33.396Z,61.11
2022-12-19T14:28:20.207Z,61.93
2022-12-19T14:30:38.487Z,62.41
2022-12-19T14:33:44.838Z,62.54
2022-12-19T14:36:12.308Z,62.53
2022-12-19T14:39:24.815Z,62.63
2022-12-19T14:42:01.976Z,62.65
2022-12-19T14:52:08.778Z,63.00
2022-12-19T14:52:25.213Z,63.04
2022-12-19T14:54:16.868Z,63.16
2022-12-19T14:54:22.080Z,63.35
2022-12-19T14:58:57.515Z,62.77
2022-12-19T15:01:28.495Z,62.50
2022-12-19T15:04:51.026Z,62.13
2022-12-19T15:07:08.849Z,62.36
2022-12-19T15:10:59.328Z,62.69
2022-12-19T15:14:53.358Z,62.33
2022-12-19T15:15:42.483Z,62.83
2022-12-19T15:18:24.327Z,62.47
2022-12-19T15:20:53.021Z,62.42
2022-12-19T15:23:22.641Z,61.95
2022-12-19T15:26:07.991Z,62.00
2022-12-19T15:28:40.354Z,62.52
2022-12-19T15:31:14.879Z,62.70
2022-12-19T15:34:07.220Z,62.63
2022-12-19T15:36:31.796Z,62.59
2022-12-19T15:39:00.041Z,62.93
2022-12-19T15:41:28.209Z,62.98
2022-12-19T15:44:04.765Z,62.79
2022-12-19T15:46:33.692Z,62.55
2022-12-19T15:49:03.059Z,62.64
2022-12-19T15:51:30.828Z,63.10
2022-12-19T15:54:15.528Z,63.21
2022-12-19T15:56:48.649Z,63.13
2022-12-19T15:59:26.655Z,62.96
2022-12-19T16:01:57.298Z,63.23
2022-12-19T16:04:27.183Z,63.35
2022-12-19T16:06:55.144Z,63.44
2022-12-19T16:09:25.535Z,62.90
2022-12-19T16:11:54.354Z,63.13
2022-12-19T16:14:23.050Z,63.17
2022-12-19T16:16:54.100Z,63.18
2022-12-19T16:19:27.821Z,63.46
2022-12-19T16:21:56.469Z,63.05
2022-12-19T16:24:24.878Z,63.37
2022-12-19T16:26:54.713Z,63.18
2022-12-19T16:29:24.240Z,62.55
2022-12-19T16:31:52.834Z,62.01
2022-12-19T16:34:24.175Z,62.40
2022-12-19T16:36:54.206Z,62.02
2022-12-19T16:39:22.010Z,62.40
2022-12-19T16:41:49.742Z,62.39
2022-12-19T16:44:19.615Z,61.78
2022-12-19T16:46:51.092Z,61.97
2022-12-19T16:49:22.825Z,61.62
2022-12-19T16:51:50.666Z,61.62
2022-12-19T16:54:19.986Z,61.38
2022-12-19T16:56:49.182Z,61.33
2022-12-19T16:59:19.106Z,61.20
2022-12-19T17:01:48.100Z,61.03
2022-12-19T17:04:17.362Z,61.26
2022-12-19T17:06:45.214Z,61.49
2022-12-19T17:09:15.628Z,61.26
2022-12-19T17:11:48.376Z,61.13
2022-12-19T17:14:18.470Z,60.84
2022-12-19T17:16:46.576Z,60.91
2022-12-19T17:19:21.503Z,60.61
2022-12-19T17:21:49.627Z,60.26
2022-12-19T17:24:17.775Z,60.13
2022-12-19T17:26:47.581Z,60.40
2022-12-19T17:29:15.861Z,60.04
2022-12-19T17:31:43.747Z,59.91
2022-12-19T17:34:17.385Z,59.65
2022-12-19T17:36:45.757Z,59.21
2022-12-19T17:39:21.433Z,59.77
2022-12-19T17:41:51.373Z,59.77
2022-12-19T17:44:19.385Z,59.99
2022-12-19T17:46:48.136Z,60.10
2022-12-19T17:49:17.976Z,60.13
2022-12-19T17:51:50.207Z,60.03
2022-12-19T17:54:18.000Z,59.81
2022-12-19T17:56:45.938Z,59.53
2022-12-19T17:59:15.089Z,58.97
2022-12-19T18:01:43.882Z,58.77
2022-12-19T18:04:14.867Z,58.58
2022-12-19T18:06:43.011Z,58.67
2022-12-19T18:09:19.074Z,59.16
2022-12-19T18:11:47.119Z,59.08
2022-12-19T18:14:16.701Z,59.52
2022-12-19T18:16:45.172Z,58.93
2022-12-19T18:19:17.384Z,59.03
2022-12-19T18:21:45.185Z,59.20
2022-12-19T18:24:14.809Z,59.18
2022-12-19T18:26:42.700Z,58.83
2022-12-19T18:29:10.493Z,58.66
2022-12-19T18:31:46.272Z,58.65
2022-12-19T18:34:19.578Z,58.59
2022-12-19T18:36:47.512Z,58.81
2022-12-19T18:39:23.799Z,58.30
2022-12-19T18:41:52.559Z,59.04
2022-12-19T18:44:20.780Z,58.94
2022-12-19T18:46:51.629Z,59.19
2022-12-19T18:49:19.456Z,59.09
2022-12-19T18:51:47.559Z,59.29
2022-12-19T18:54:17.092Z,59.50
2022-12-19T18:56:45.501Z,59.60
2022-12-19T18:59:13.990Z,59.45
2022-12-19T19:01:44.967Z,59.63
2022-12-19T19:04:17.600Z,60.09
2022-12-19T19:06:50.988Z,60.41
2022-12-19T19:09:21.643Z,59.99
2022-12-19T19:12:07.653Z,60.55
2022-12-19T19:14:35.620Z,60.27
2022-12-19T19:17:04.667Z,60.11
2022-12-19T19:19:33.858Z,60.10
2022-12-19T19:22:01.662Z,59.84
2022-12-19T19:24:29.468Z,59.99
2022-12-19T19:26:57.202Z,60.45
2022-12-19T19:29:24.977Z,60.37
2022-12-19T19:31:52.908Z,60.50
2022-12-19T19:34:24.341Z,60.33
2022-12-19T19:36:55.816Z,60.50
2022-12-19T19:39:24.009Z,60.28
2022-12-19T19:41:51.769Z,59.96
2022-12-19T19:44:19.525Z,59.40
2022-12-19T19:46:47.374Z,59.94
2022-12-19T19:49:15.457Z,59.91
2022-12-19T19:51:43.369Z,60.38
2022-12-19T19:54:12.644Z,60.20
2022-12-19T19:56:40.423Z,60.11
2022-12-19T19:59:08.346Z,60.05
2022-12-19T20:01:36.211Z,60.11
2022-12-19T20:04:04.340Z,60.57
2022-12-19T20:06:32.178Z,60.20
2022-12-19T20:09:00.150Z,60.50
2022-12-19T20:11:29.353Z,60.99
2022-12-19T20:13:57.234Z,60.53
2022-12-19T20:16:25.161Z,60.82
2022-12-19T20:18:53.764Z,60.82
2022-12-19T20:21:23.877Z,61.20
2022-12-19T20:23:51.955Z,61.13
2022-12-19T20:26:20.155Z,61.04
2022-12-19T20:28:51.637Z,60.97
2022-12-19T20:31:20.057Z,61.03
2022-12-19T20:33:49.067Z,61.02
2022-12-19T20:36:17.921Z,61.40
2022-12-19T20:38:46.221Z,61.99
2022-12-19T20:41:14.216Z,62.11
2022-12-19T20:43:42.089Z,61.94
2022-12-19T20:46:13.083Z,62.90
2022-12-19T20:48:41.202Z,63.42
2022-12-19T20:51:09.877Z,64.19
2022-12-19T20:53:38.645Z,64.55
2022-12-19T20:56:07.784Z,64.89
2022-12-19T20:58:37.397Z,65.18
2022-12-19T21:01:07.225Z,64.88
2022-12-19T21:03:37.776Z,65.13
2022-12-19T21:06:06.442Z,65.09
2022-12-19T21:08:35.058Z,64.56
2022-12-19T21:11:03.828Z,64.78
2022-12-19T21:13:31.770Z,64.43
2022-12-19T21:16:02.763Z,64.77
2022-12-19T21:18:31.094Z,65.02
2022-12-19T21:21:01.180Z,64.41
2022-12-19T21:23:29.605Z,64.02
2022-12-19T21:25:58.563Z,64.08
2022-12-19T21:28:26.369Z,63.42
2022-12-19T21:30:59.769Z,63.45
2022-12-19T21:33:27.817Z,63.74
2022-12-19T21:35:55.646Z,63.72
2022-12-19T21:38:25.418Z,63.87
2022-12-19T21:40:53.168Z,64.52
2022-12-19T21:43:21.028Z,64.01
2022-12-19T21:45:48.835Z,63.82
2022-12-19T21:48:16.637Z,64.53
2022-12-19T21:50:44.388Z,64.48
2022-12-19T21:53:12.145Z,63.40
2022-12-19T21:55:41.270Z,62.64
2022-12-19T21:58:09.037Z,63.33
2022-12-19T22:00:36.833Z,64.13
2022-12-19T22:03:20.099Z,63.73
2022-12-19T22:05:48.048Z,64.21
2022-12-19T22:08:15.834Z,64.27
2022-12-19T22:10:45.007Z,64.52
2022-12-19T22:13:12.888Z,64.68
2022-12-19T22:15:40.600Z,65.24
2022-12-19T22:18:08.603Z,64.93
2022-12-19T22:20:36.349Z,65.34
2022-12-19T22:23:09.734Z,65.61
2022-12-19T22:25:41.128Z,64.98
2022-12-19T22:28:10.488Z,65.15
2022-12-19T22:30:38.268Z,65.81
2022-12-19T22:33:06.075Z,65.77
2022-12-19T22:35:35.400Z,65.84
2022-12-19T22:38:03.157Z,65.83
2022-12-19T22:40:33.057Z,65.91
2022-12-19T22:43:00.847Z,65.88
2022-12-19T22:45:32.190Z,65.32
2022-12-19T22:47:59.958Z,65.76
2022-12-19T22:50:27.831Z,65.71
2022-12-19T22:52:55.674Z,65.70
2022-12-19T22:55:23.426Z,66.33
2022-12-19T22:57:51.190Z,66.37
2022-12-19T23:00:19.387Z,66.40
2022-12-19T23:02:48.749Z,65.48
2022-12-19T23:05:16.723Z,65.56
2022-12-19T23:07:45.338Z,65.73
2022-12-19T23:10:13.381Z,65.92
2022-12-19T23:12:41.079Z,65.96
2022-12-19T23:15:09.397Z,65.90
2022-12-19T23:17:37.101Z,65.86
2022-12-19T23:20:08.635Z,65.06
2022-12-19T23:22:36.405Z,65.54
2022-12-19T23:25:04.555Z,65.09
2022-12-19T23:27:32.501Z,64.87
2022-12-19T23:30:00.251Z,64.00
2022-12-19T23:32:28.156Z,63.75
2022-12-19T23:34:55.921Z,63.33
2022-12-19T23:37:25.031Z,63.74
2022-12-19T23:39:52.783Z,63.07
2022-12-19T23:42:20.519Z,63.59
2022-12-19T23:44:48.345Z,63.58
2022-12-19T23:47:16.103Z,63.53
2022-12-19T23:49:43.866Z,63.23
2022-12-19T23:52:11.672Z,62.71
2022-12-19T23:54:40.892Z,63.66
2022-12-19T23:57:08.841Z,63.21
2022-12-19T23:59:37.069Z,63.41
